Time;durP1;ratioP1;P1;durP2;ratioP2;P2;SDS_P1;SDS_P2;PMS_P1;PMS_P2;Temp;Humidity;BMP_temperature;BMP_pressure;BME280_temperature;BME280_humidity;BME280_pressure;Samples;Min_cycle;Max_cycle;Signal;HPM_P1;HPM_P2
2021/04/23 00:00:52;;;;;;;11.48;4.38;;;6.90;99.90;;;;;;5073086;28;20202;-75
2021/04/23 00:03:17;;;;;;;8.25;3.45;;;6.90;99.90;;;;;;5074590;28;20190;-75
2021/04/23 00:05:44;;;;;;;23.08;3.85;;;6.90;99.90;;;;;;5074668;28;20167;-75
2021/04/23 00:08:12;;;;;;;9.98;3.85;;;6.80;99.90;;;;;;5074623;28;20205;-75
2021/04/23 00:10:38;;;;;;;15.63;4.65;;;6.80;99.90;;;;;;5074560;28;20616;-75
2021/04/23 00:13:04;;;;;;;12.77;4.13;;;6.80;99.90;;;;;;5074368;28;20174;-75
2021/04/23 00:15:30;;;;;;;8.80;3.92;;;6.80;99.90;;;;;;5082324;28;20174;-75
2021/04/23 00:17:56;;;;;;;11.20;4.32;;;6.80;99.90;;;;;;5093515;28;20174;-75
2021/04/23 00:20:24;;;;;;;15.00;4.00;;;6.70;99.90;;;;;;5093455;28;20287;-75
2021/04/23 00:22:50;;;;;;;16.02;4.22;;;6.70;99.90;;;;;;5094624;28;20174;-76
2021/04/23 00:25:25;;;;;;;14.52;4.40;;;6.60;99.90;;;;;;5074325;28;20544;-76
2021/04/23 00:27:52;;;;;;;17.40;4.07;;;6.60;99.90;;;;;;5074234;28;20190;-76
2021/04/23 00:30:19;;;;;;;14.13;3.93;;;6.60;99.90;;;;;;5084434;28;20163;-76
2021/04/23 00:32:54;;;;;;;14.53;4.00;;;6.60;99.90;;;;;;5093744;28;20185;-75
2021/04/23 00:35:22;;;;;;;12.10;4.40;;;6.50;99.90;;;;;;5092557;28;20238;-74
2021/04/23 00:37:49;;;;;;;12.73;4.07;;;6.50;99.90;;;;;;5077175;28;20166;-75
2021/04/23 00:40:21;;;;;;;11.67;4.70;;;6.40;99.90;;;;;;5072858;28;20216;-76
2021/04/23 00:42:48;;;;;;;12.23;4.33;;;6.30;99.90;;;;;;5074467;28;20173;-75
2021/04/23 00:45:18;;;;;;;19.43;4.50;;;6.30;99.90;;;;;;5072578;28;20170;-75
2021/04/23 00:47:49;;;;;;;17.53;3.60;;;6.30;99.90;;;;;;5073819;28;20178;-75
2021/04/23 00:50:32;;;;;;;14.87;3.63;;;6.30;99.90;;;;;;5073863;28;20195;-76
2021/04/23 00:52:58;;;;;;;11.07;4.33;;;6.30;99.90;;;;;;5073370;28;20171;-76
2021/04/23 00:55:24;;;;;;;10.33;3.27;;;6.20;99.90;;;;;;5055293;28;20175;-75
2021/04/23 00:57:50;;;;;;;12.03;3.57;;;6.20;99.90;;;;;;5073203;28;20666;-75
2021/04/23 01:00:16;;;;;;;16.13;3.80;;;6.30;99.90;;;;;;5073576;28;20171;-75
2021/04/23 01:02:42;;;;;;;15.10;4.23;;;6.30;99.90;;;;;;5071845;28;20182;-75
2021/04/23 01:05:08;;;;;;;13.40;4.00;;;6.20;99.90;;;;;;5071935;28;20186;-75
2021/04/23 01:07:36;;;;;;;9.53;3.67;;;6.10;99.90;;;;;;5071998;28;20639;-75
2021/04/23 01:10:03;;;;;;;8.87;3.20;;;6.10;99.90;;;;;;5073513;28;20170;-75
2021/04/23 01:12:29;;;;;;;6.67;3.50;;;6.10;99.90;;;;;;5073527;28;20169;-75
2021/04/23 01:14:55;;;;;;;11.30;3.93;;;6.10;99.90;;;;;;5072113;28;20618;-75
2021/04/23 01:17:20;;;;;;;12.67;4.43;;;6.10;99.90;;;;;;5073444;28;20220;-75
2021/04/23 01:19:46;;;;;;;10.87;4.37;;;6.10;99.90;;;;;;5073249;28;20183;-75
2021/04/23 01:22:12;;;;;;;8.97;4.50;;;6.10;99.90;;;;;;5073189;28;20174;-75
2021/04/23 01:24:38;;;;;;;10.10;3.90;;;6.10;99.90;;;;;;5072660;28;20182;-75
2021/04/23 01:27:04;;;;;;;14.30;3.80;;;6.10;99.90;;;;;;5072091;28;20702;-76
2021/04/23 01:29:29;;;;;;;10.35;4.45;;;6.10;99.90;;;;;;5073285;28;20202;-75
2021/04/23 01:31:58;;;;;;;6.27;4.03;;;6.20;99.90;;;;;;5071895;28;20171;-75
2021/04/23 01:34:31;;;;;;;14.10;4.53;;;6.20;99.90;;;;;;5072965;28;20174;-75
2021/04/23 01:37:00;;;;;;;9.63;3.80;;;6.20;99.90;;;;;;5073536;28;20197;-75
2021/04/23 01:39:28;;;;;;;9.17;4.00;;;6.10;99.90;;;;;;5073602;28;20170;-75
2021/04/23 01:41:55;;;;;;;9.67;3.67;;;6.10;99.90;;;;;;5071992;28;20178;-76
2021/04/23 01:44:22;;;;;;;12.30;4.30;;;6.20;99.90;;;;;;5073161;28;20190;-76
2021/04/23 01:46:48;;;;;;;12.27;4.25;;;6.20;99.90;;;;;;5072863;28;20179;-76
2021/04/23 01:49:16;;;;;;;12.23;4.32;;;6.40;99.90;;;;;;5071549;28;20221;-75
2021/04/23 01:51:48;;;;;;;14.90;4.47;;;6.30;99.90;;;;;;5073091;28;20167;-76
2021/04/23 01:54:14;;;;;;;18.27;4.67;;;6.20;99.90;;;;;;5073217;28;20615;-76
2021/04/23 01:56:41;;;;;;;13.13;4.90;;;6.20;99.90;;;;;;5071392;28;20183;-75
2021/04/23 01:59:07;;;;;;;14.10;4.70;;;6.20;99.90;;;;;;5071728;28;20265;-75
2021/04/23 02:01:33;;;;;;;16.05;4.28;;;6.30;99.90;;;;;;5072464;28;20174;-75
2021/04/23 02:03:59;;;;;;;13.32;4.35;;;6.40;99.90;;;;;;5071188;28;20194;-75
2021/04/23 02:06:25;;;;;;;17.48;4.18;;;6.60;99.90;;;;;;5071495;28;20182;-75
2021/04/23 02:08:52;;;;;;;17.37;4.60;;;6.40;99.90;;;;;;5073600;28;20206;-75
2021/04/23 02:11:20;;;;;;;12.52;4.38;;;6.30;99.90;;;;;;5076829;28;20163;-75
2021/04/23 02:13:49;;;;;;;10.47;4.40;;;6.30;99.90;;;;;;5076748;28;20171;-75
2021/04/23 02:16:18;;;;;;;12.60;4.38;;;6.30;99.90;;;;;;5076111;28;20281;-75
2021/04/23 02:18:45;;;;;;;13.33;5.00;;;6.10;99.90;;;;;;5076705;28;20182;-75
2021/04/23 02:21:11;;;;;;;12.33;4.20;;;6.00;99.90;;;;;;5076469;28;20538;-75
2021/04/23 02:23:42;;;;;;;12.73;4.57;;;5.90;99.90;;;;;;5058399;28;20178;-76
2021/04/23 02:26:08;;;;;;;5.43;3.90;;;5.90;99.90;;;;;;5075978;28;20228;-76
2021/04/23 02:28:34;;;;;;;14.73;4.40;;;5.90;99.90;;;;;;5076331;28;20206;-76
2021/04/23 02:31:09;;;;;;;8.37;4.50;;;5.90;99.90;;;;;;5074996;28;20527;-75
2021/04/23 02:33:35;;;;;;;15.70;4.30;;;6.00;99.90;;;;;;5076556;28;20176;-75
2021/04/23 02:36:01;;;;;;;17.98;5.15;;;6.10;99.90;;;;;;5109172;28;20163;-75
2021/04/23 02:38:28;;;;;;;13.63;4.07;;;6.30;99.90;;;;;;5076256;28;20177;-75
2021/04/23 02:40:55;;;;;;;17.23;4.80;;;6.30;99.90;;;;;;5075052;28;20174;-76
2021/04/23 02:43:25;;;;;;;15.95;4.68;;;6.20;99.90;;;;;;5076134;28;20635;-75
2021/04/23 02:45:52;;;;;;;13.98;4.32;;;6.10;99.90;;;;;;5074797;28;20538;-75
2021/04/23 02:48:21;;;;;;;9.07;4.90;;;5.90;99.90;;;;;;5074820;28;20214;-75
2021/04/23 02:50:50;;;;;;;12.33;4.57;;;5.90;99.90;;;;;;5076163;28;20167;-75
2021/04/23 02:53:16;;;;;;;13.87;4.30;;;5.90;99.90;;;;;;5075877;28;20197;-75
2021/04/23 02:55:43;;;;;;;10.90;4.47;;;5.70;99.90;;;;;;5074333;28;20199;-76
2021/04/23 02:58:13;;;;;;;12.83;5.43;;;5.60;99.90;;;;;;5074620;28;20619;-75
2021/04/23 03:00:42;;;;;;;14.73;5.23;;;5.50;99.90;;;;;;5075625;28;20225;-75
2021/04/23 03:03:09;;;;;;;20.20;5.57;;;5.50;99.90;;;;;;5075433;28;20201;-76
2021/04/23 03:05:36;;;;;;;12.17;4.97;;;5.40;99.90;;;;;;5075954;28;20173;-75
2021/04/23 03:08:03;;;;;;;17.37;4.90;;;5.30;99.90;;;;;;5075563;28;20599;-75
2021/04/23 03:10:35;;;;;;;21.90;5.23;;;5.40;99.90;;;;;;5075514;28;20167;-75
2021/04/23 03:13:22;;;;;;;11.33;5.30;;;5.40;99.90;;;;;;5075875;28;20190;-75
2021/04/23 03:15:48;;;;;;;11.63;4.97;;;5.30;99.90;;;;;;5074367;28;20166;-75
2021/04/23 03:18:17;;;;;;;16.27;6.17;;;5.30;99.90;;;;;;5075616;28;20231;-75
2021/04/23 03:20:43;;;;;;;5.67;4.77;;;5.30;99.90;;;;;;5073594;28;20177;-76
2021/04/23 03:23:09;;;;;;;18.97;6.10;;;5.30;99.90;;;;;;5075798;28;20222;-75
2021/04/23 03:25:36;;;;;;;19.03;6.40;;;5.20;99.90;;;;;;5075325;28;20658;-75
2021/04/23 03:28:03;;;;;;;16.63;5.43;;;5.00;99.90;;;;;;5074084;28;20248;-75
2021/04/23 03:30:33;;;;;;;15.37;5.93;;;5.00;99.90;;;;;;5073898;28;20304;-76
2021/04/23 03:33:00;;;;;;;14.80;5.50;;;5.00;99.90;;;;;;5075586;28;20171;-75
2021/04/23 03:35:27;;;;;;;18.93;5.77;;;5.00;99.90;;;;;;5075149;28;20530;-75
2021/04/23 03:37:53;;;;;;;19.60;5.70;;;5.00;99.90;;;;;;5074142;28;20167;-75
2021/04/23 03:40:23;;;;;;;15.97;5.50;;;5.00;99.90;;;;;;5073963;28;20523;-76
2021/04/23 03:42:49;;;;;;;18.70;5.80;;;5.00;99.90;;;;;;5075187;28;20197;-75
2021/04/23 03:45:18;;;;;;;16.47;5.77;;;5.10;99.90;;;;;;5073566;28;20174;-75
2021/04/23 03:47:44;;;;;;;14.77;5.80;;;5.10;99.90;;;;;;5073695;28;20162;-76
2021/04/23 03:50:13;;;;;;;19.93;6.83;;;5.00;99.90;;;;;;5075241;28;20496;-76
2021/04/23 03:52:39;;;;;;;14.70;6.63;;;5.10;99.90;;;;;;5075506;28;20170;-75
2021/04/23 03:55:07;;;;;;;25.33;6.67;;;5.30;99.90;;;;;;5074632;28;20167;-75
2021/04/23 03:57:34;;;;;;;16.53;7.33;;;5.40;99.90;;;;;;5073382;28;20159;-75
2021/04/23 04:00:00;;;;;;;15.43;6.10;;;5.40;99.90;;;;;;5074730;28;20167;-75
2021/04/23 04:02:26;;;;;;;12.13;5.90;;;5.40;99.90;;;;;;5074854;28;20194;-75
2021/04/23 04:04:52;;;;;;;15.10;7.07;;;5.30;99.90;;;;;;5074665;28;20175;-75
2021/04/23 04:07:17;;;;;;;22.53;7.27;;;5.30;99.90;;;;;;5073110;28;20171;-76
2021/04/23 04:09:43;;;;;;;18.17;5.77;;;5.30;99.90;;;;;;5069972;28;20207;-75
2021/04/23 04:12:09;;;;;;;13.40;7.60;;;5.30;99.90;;;;;;5054386;28;20539;-76
2021/04/23 04:14:34;;;;;;;13.00;7.37;;;5.20;99.90;;;;;;5036598;28;20201;-75
2021/04/23 04:17:00;;;;;;;13.70;6.13;;;5.10;99.90;;;;;;5072880;28;20545;-75
2021/04/23 04:19:26;;;;;;;16.53;6.70;;;5.10;99.90;;;;;;5073368;28;20173;-76
2021/04/23 04:21:51;;;;;;;18.90;7.27;;;5.10;99.90;;;;;;5073184;28;20556;-75
2021/04/23 04:24:17;;;;;;;16.70;6.90;;;5.00;99.90;;;;;;5057501;28;20214;-75
2021/04/23 04:26:43;;;;;;;21.03;7.70;;;5.10;99.90;;;;;;5074318;28;20258;-75
2021/04/23 04:29:09;;;;;;;13.97;7.80;;;5.10;99.90;;;;;;5072876;28;20230;-75
2021/04/23 04:31:35;;;;;;;25.17;7.57;;;4.90;99.90;;;;;;5071699;28;20198;-76
2021/04/23 04:34:00;;;;;;;19.53;7.93;;;4.80;99.90;;;;;;5074526;28;20163;-75
2021/04/23 04:36:26;;;;;;;18.77;8.07;;;4.90;99.90;;;;;;5074182;28;20175;-76
2021/04/23 04:38:52;;;;;;;21.93;8.40;;;4.90;99.90;;;;;;5073885;28;20179;-75
2021/04/23 04:41:18;;;;;;;14.50;8.10;;;5.00;99.90;;;;;;5072791;28;20189;-75
2021/04/23 04:43:44;;;;;;;15.57;7.73;;;5.00;99.90;;;;;;5072626;28;20167;-75
2021/04/23 04:46:10;;;;;;;22.20;8.73;;;4.90;99.90;;;;;;5073759;28;20170;-76
2021/04/23 04:48:36;;;;;;;17.67;7.47;;;4.70;99.90;;;;;;5072480;28;20263;-75
2021/04/23 04:51:03;;;;;;;24.40;8.97;;;4.70;99.90;;;;;;5073774;28;20170;-75
2021/04/23 04:53:30;;;;;;;19.20;8.17;;;4.60;99.90;;;;;;5073738;28;20258;-75
2021/04/23 04:55:59;;;;;;;19.73;7.87;;;4.70;99.90;;;;;;5072361;28;20276;-75
2021/04/23 04:58:31;;;;;;;26.30;7.63;;;4.70;99.90;;;;;;5072382;28;20668;-75
2021/04/23 05:00:59;;;;;;;20.07;8.00;;;4.70;99.90;;;;;;5072581;28;20215;-75
2021/04/23 05:03:25;;;;;;;17.37;7.47;;;4.70;99.90;;;;;;5072146;28;20197;-75
2021/04/23 05:05:50;;;;;;;17.67;7.57;;;4.70;99.90;;;;;;5073576;28;20171;-75
2021/04/23 05:08:16;;;;;;;23.17;7.67;;;4.70;99.90;;;;;;5072201;28;20236;-76
2021/04/23 05:10:42;;;;;;;29.20;9.07;;;4.70;99.90;;;;;;5072184;28;20170;-75
2021/04/23 05:13:08;;;;;;;15.33;7.10;;;4.80;99.90;;;;;;5073584;28;20163;-75
2021/04/23 05:15:34;;;;;;;18.70;7.67;;;4.80;99.90;;;;;;5073398;28;20168;-75
2021/04/23 05:18:00;;;;;;;28.20;7.80;;;4.90;99.90;;;;;;5071951;28;20229;-76
2021/04/23 05:20:26;;;;;;;17.57;8.10;;;4.90;99.90;;;;;;5072053;28;20178;-75
2021/04/23 05:22:52;;;;;;;34.40;8.70;;;5.00;99.90;;;;;;5072146;28;20258;-76
2021/04/23 05:25:21;;;;;;;16.27;7.27;;;5.10;99.90;;;;;;5071768;28;20163;-75
2021/04/23 05:27:48;;;;;;;27.07;8.37;;;5.20;99.90;;;;;;5072890;28;20634;-75
2021/04/23 05:30:17;;;;;;;29.73;7.47;;;5.30;99.90;;;;;;5073071;28;20167;-75
2021/04/23 05:32:44;;;;;;;20.33;6.60;;;5.30;99.90;;;;;;5073093;28;20183;-75
2021/04/23 05:35:11;;;;;;;15.07;7.10;;;5.40;99.90;;;;;;5072896;28;20253;-75
2021/04/23 05:37:37;;;;;;;20.13;8.13;;;5.60;99.90;;;;;;5071824;28;20637;-76
2021/04/23 05:40:06;;;;;;;22.30;8.47;;;5.70;99.90;;;;;;5073043;28;20247;-75
2021/04/23 05:42:32;;;;;;;12.03;6.73;;;5.90;99.90;;;;;;5072959;28;20174;-75
2021/04/23 05:44:57;;;;;;;13.30;7.03;;;5.90;99.90;;;;;;5077118;28;20175;-75
2021/04/23 05:47:24;;;;;;;25.53;8.07;;;6.00;99.90;;;;;;5077179;28;20212;-75
2021/04/23 05:49:50;;;;;;;23.80;9.10;;;6.00;99.90;;;;;;5077094;28;20194;-75
2021/04/23 05:52:16;;;;;;;17.07;7.30;;;6.00;99.90;;;;;;5077247;28;20708;-75
2021/04/23 05:54:42;;;;;;;17.70;6.67;;;6.10;99.90;;;;;;5076860;28;20159;-76
2021/04/23 05:57:08;;;;;;;21.33;7.70;;;6.20;99.90;;;;;;5075680;28;20631;-76
2021/04/23 05:59:34;;;;;;;18.77;7.10;;;6.20;99.90;;;;;;5076210;28;20174;-75
2021/04/23 06:01:59;;;;;;;23.13;8.30;;;6.30;99.90;;;;;;5075682;28;20198;-75
2021/04/23 06:04:26;;;;;;;19.27;7.40;;;6.30;99.90;;;;;;5076872;28;20181;-75
2021/04/23 06:06:52;;;;;;;19.17;7.90;;;6.40;99.90;;;;;;5075803;28;20171;-75
2021/04/23 06:09:18;;;;;;;11.67;7.67;;;6.50;99.90;;;;;;5076789;28;20289;-75
2021/04/23 06:11:43;;;;;;;20.67;6.80;;;6.70;99.90;;;;;;5076636;28;20254;-75
2021/04/23 06:14:09;;;;;;;13.90;7.23;;;6.80;99.90;;;;;;5076672;28;20623;-75
2021/04/23 06:16:35;;;;;;;10.13;6.17;;;6.90;99.90;;;;;;5075287;28;20205;-76
2021/04/23 06:19:02;;;;;;;23.63;7.00;;;7.00;99.90;;;;;;5076717;28;20223;-76
2021/04/23 06:21:28;;;;;;;14.03;7.13;;;7.10;99.90;;;;;;5076593;28;20167;-76
2021/04/23 06:23:54;;;;;;;12.88;6.35;;;7.10;99.90;;;;;;5076821;28;20331;-75
2021/04/23 06:26:20;;;;;;;18.63;7.50;;;6.90;99.90;;;;;;5074872;28;20285;-75
2021/04/23 06:28:46;;;;;;;22.37;6.97;;;7.00;99.90;;;;;;5055288;28;20613;-75
2021/04/23 06:31:16;;;;;;;16.47;6.73;;;7.20;99.90;;;;;;5073563;28;20179;-75
2021/04/23 06:33:47;;;;;;;15.07;6.30;;;7.20;99.90;;;;;;5076005;28;20171;-75
2021/04/23 06:36:14;;;;;;;17.97;6.77;;;7.10;99.90;;;;;;5076161;28;20504;-75
2021/04/23 06:38:41;;;;;;;21.05;6.20;;;7.10;99.90;;;;;;5074782;28;20181;-75
2021/04/23 06:41:07;;;;;;;15.70;6.15;;;7.80;99.90;;;;;;5076431;28;20517;-75
2021/04/23 06:43:33;;;;;;;11.13;4.60;;;9.60;99.90;;;;;;5074692;28;20228;-75
2021/04/23 06:45:59;;;;;;;10.10;5.28;;;12.00;99.90;;;;;;5075898;28;20179;-75
2021/04/23 06:48:25;;;;;;;11.13;4.03;;;12.90;99.90;;;;;;5074805;28;20731;-75
2021/04/23 06:50:51;;;;;;;14.43;4.43;;;14.60;99.90;;;;;;5074752;28;20174;-76
2021/04/23 06:53:18;;;;;;;10.52;4.10;;;15.80;99.90;;;;;;5075925;28;20171;-75
2021/04/23 06:55:45;;;;;;;15.30;4.35;;;15.70;99.90;;;;;;5074979;28;20183;-75
2021/04/23 06:58:11;;;;;;;9.20;4.20;;;15.10;99.90;;;;;;5074812;28;20697;-75
2021/04/23 07:00:39;;;;;;;11.07;3.83;;;13.80;99.90;;;;;;5075656;28;20163;-75
2021/04/23 07:03:07;;;;;;;9.77;3.60;;;14.40;99.90;;;;;;5075276;28;20192;-76
2021/04/23 07:05:33;;;;;;;11.05;3.63;;;13.60;99.90;;;;;;5075919;28;20198;-75
2021/04/23 07:07:59;;;;;;;11.93;3.63;;;14.30;99.90;;;;;;5075536;28;20615;-75
2021/04/23 07:10:27;;;;;;;9.20;3.67;;;13.70;99.90;;;;;;5075917;28;20627;-75
2021/04/23 07:12:53;;;;;;;8.38;3.33;;;14.60;99.90;;;;;;5073764;28;20170;-76
2021/04/23 07:15:23;;;;;;;7.90;3.80;;;14.60;99.90;;;;;;5074399;28;20575;-75
2021/04/23 07:17:49;;;;;;;7.20;3.40;;;15.10;99.90;;;;;;5074220;28;20269;-75
2021/04/23 07:20:15;;;;;;;7.15;3.10;;;15.30;99.90;;;;;;5075413;28;20595;-75
2021/04/23 07:22:42;;;;;;;7.10;3.10;;;15.20;99.90;;;;;;5075252;28;20641;-76
2021/04/23 07:25:08;;;;;;;9.65;3.50;;;16.10;99.20;;;;;;5075345;28;20163;-75
2021/04/23 07:27:36;;;;;;;5.93;2.60;;;17.20;96.80;;;;;;5075308;28;20212;-75
2021/04/23 07:30:04;;;;;;;14.13;3.63;;;15.10;97.90;;;;;;5074019;28;20207;-75
2021/04/23 07:32:30;;;;;;;4.55;3.13;;;17.90;96.10;;;;;;5075613;28;20627;-76
2021/04/23 07:34:56;;;;;;;11.48;3.75;;;20.40;92.80;;;;;;5074027;28;20197;-76
2021/04/23 07:37:22;;;;;;;6.32;3.10;;;20.50;90.20;;;;;;5075467;28;20170;-76
2021/04/23 07:39:47;;;;;;;9.93;2.72;;;21.70;83.20;;;;;;5075281;28;20177;-76
2021/04/23 07:42:13;;;;;;;11.38;3.35;;;21.30;84.50;;;;;;5073743;28;20170;-76
2021/04/23 07:44:39;;;;;;;8.35;2.95;;;23.50;79.90;;;;;;5074930;28;20638;-75
2021/04/23 07:47:04;;;;;;;9.48;2.92;;;23.60;80.20;;;;;;5074998;28;20163;-76
2021/04/23 07:49:30;;;;;;;9.45;2.83;;;24.20;72.80;;;;;;5073638;28;20203;-76
2021/04/23 07:51:56;;;;;;;5.93;2.40;;;22.60;75.90;;;;;;5074813;28;20261;-77
2021/04/23 07:54:21;;;;;;;5.63;2.60;;;20.50;78.40;;;;;;5074842;28;20167;-77
2021/04/23 07:56:47;;;;;;;7.95;2.92;;;19.60;82.20;;;;;;5074299;28;20214;-77
2021/04/23 07:59:13;;;;;;;9.68;3.03;;;19.60;81.70;;;;;;5074971;28;20598;-77
2021/04/23 08:01:39;;;;;;;9.18;3.28;;;20.20;81.60;;;;;;5073183;28;20170;-76
2021/04/23 08:04:05;;;;;;;6.15;3.00;;;21.70;78.70;;;;;;5090272;28;20547;-77
2021/04/23 08:06:31;;;;;;;10.70;3.00;;;23.60;76.40;;;;;;5075020;28;20500;-77
2021/04/23 08:08:57;;;;;;;8.68;3.30;;;21.60;76.60;;;;;;5074478;28;20199;-77
2021/04/23 08:11:23;;;;;;;11.48;3.22;;;21.40;78.90;;;;;;5071144;28;20630;-77
2021/04/23 08:13:50;;;;;;;7.53;3.40;;;22.70;77.60;;;;;;5070583;28;20179;-77
2021/04/23 08:16:16;;;;;;;7.95;2.83;;;23.00;74.80;;;;;;5067702;28;20182;-76
2021/04/23 08:18:42;;;;;;;6.53;2.95;;;22.70;72.50;;;;;;5065887;28;20261;-77
2021/04/23 08:21:08;;;;;;;7.88;2.70;;;19.60;78.00;;;;;;5073907;28;20277;-77
2021/04/23 08:23:35;;;;;;;7.22;2.63;;;19.20;79.60;;;;;;5073540;28;20193;-78
2021/04/23 08:26:03;;;;;;;12.07;3.13;;;18.50;82.50;;;;;;5074013;28;20227;-77
2021/04/23 08:28:32;;;;;;;13.23;3.28;;;20.90;81.10;;;;;;5061299;28;20210;-77
2021/04/23 08:30:58;;;;;;;7.05;3.70;;;20.30;79.00;;;;;;5060594;28;20701;-76
2021/04/23 08:33:24;;;;;;;10.05;3.70;;;17.40;83.80;;;;;;5074199;28;20178;-76
2021/04/23 08:35:50;;;;;;;9.35;3.47;;;17.00;87.20;;;;;;5071337;28;20162;-77
2021/04/23 08:38:16;;;;;;;5.68;3.35;;;17.20;85.80;;;;;;5067345;28;20634;-77
2021/04/23 08:40:42;;;;;;;16.08;3.67;;;18.40;82.40;;;;;;5053769;28;20175;-77
2021/04/23 08:43:07;;;;;;;9.27;3.75;;;18.70;82.90;;;;;;5072361;28;20531;-79
2021/04/23 08:45:33;;;;;;;5.18;3.08;;;18.80;82.60;;;;;;5073247;28;20167;-77
2021/04/23 08:47:59;;;;;;;8.10;3.60;;;19.50;81.20;;;;;;5072951;28;20261;-78
2021/04/23 08:50:26;;;;;;;9.95;3.38;;;19.60;80.80;;;;;;5069851;28;20183;-77
2021/04/23 08:52:53;;;;;;;6.50;2.80;;;20.90;78.90;;;;;;5054170;28;20183;-77
2021/04/23 08:55:24;;;;;;;7.32;2.90;;;22.80;76.50;;;;;;5072150;28;20210;-76
2021/04/23 08:57:51;;;;;;;10.60;3.45;;;25.50;72.80;;;;;;5068622;28;20173;-78
2021/04/23 09:00:18;;;;;;;10.45;3.55;;;26.50;66.90;;;;;;5070315;28;20207;-77
2021/04/23 09:02:44;;;;;;;13.02;3.50;;;24.10;70.70;;;;;;5071173;28;20718;-76
2021/04/23 09:05:11;;;;;;;10.02;3.25;;;24.70;70.70;;;;;;5071561;28;20185;-77
2021/04/23 09:07:37;;;;;;;4.15;2.55;;;26.50;68.30;;;;;;5068720;28;20167;-77
2021/04/23 09:10:13;;;;;;;5.53;2.67;;;26.60;66.60;;;;;;5069834;28;20202;-76
2021/04/23 09:12:40;;;;;;;6.95;3.47;;;26.30;63.80;;;;;;5068633;28;20165;-76
2021/04/23 09:15:22;;;;;;;8.93;3.10;;;24.30;66.40;;;;;;5068792;28;20216;-76
2021/04/23 09:18:07;;;;;;;5.35;2.67;;;23.10;70.20;;;;;;5071746;28;20167;-76
2021/04/23 09:20:33;;;;;;;7.72;2.95;;;23.10;70.40;;;;;;5071490;28;20189;-76
2021/04/23 09:23:16;;;;;;;9.27;3.25;;;24.20;70.40;;;;;;5068492;28;20217;-76
2021/04/23 09:25:48;;;;;;;7.13;3.03;;;27.20;65.70;;;;;;5071601;28;20189;-76
2021/04/23 09:28:33;;;;;;;6.72;2.70;;;25.00;64.60;;;;;;5070426;28;20286;-77
2021/04/23 09:31:18;;;;;;;11.25;2.92;;;24.30;65.80;;;;;;5071755;28;20570;-76
2021/04/23 09:34:04;;;;;;;7.05;3.10;;;23.30;66.50;;;;;;5071009;28;20181;-77
2021/04/23 09:36:36;;;;;;;10.55;2.90;;;26.40;63.90;;;;;;5054228;28;20171;-78
2021/04/23 09:39:12;;;;;;;7.55;2.53;;;28.50;61.70;;;;;;5069423;28;20584;-76
2021/04/23 09:41:41;;;;;;;6.93;2.53;;;27.50;60.00;;;;;;5071718;28;20171;-76
2021/04/23 09:44:29;;;;;;;8.23;2.97;;;28.90;60.60;;;;;;5072787;28;20582;-76
2021/04/23 09:47:03;;;;;;;8.60;3.17;;;25.50;60.40;;;;;;5071706;28;20533;-76
2021/04/23 09:49:29;;;;;;;6.80;3.15;;;23.10;67.70;;;;;;5071340;28;20210;-76
2021/04/23 09:51:55;;;;;;;13.63;2.80;;;25.10;65.60;;;;;;5071915;28;20173;-77
2021/04/23 09:54:25;;;;;;;9.00;3.42;;;27.90;61.80;;;;;;5071445;28;20171;-77
2021/04/23 09:56:53;;;;;;;11.10;2.90;;;26.40;61.60;;;;;;5071866;28;20163;-77
2021/04/23 09:59:25;;;;;;;4.32;2.47;;;27.30;60.10;;;;;;5073217;28;20167;-77
2021/04/23 10:01:50;;;;;;;10.68;2.88;;;27.60;58.60;;;;;;5071438;28;20253;-77
2021/04/23 10:04:25;;;;;;;5.18;3.00;;;25.60;59.20;;;;;;5072956;28;20250;-76
2021/04/23 10:07:16;;;;;;;6.88;3.40;;;26.80;62.60;;;;;;5071301;28;20202;-77
2021/04/23 10:09:54;;;;;;;14.80;3.35;;;26.80;59.70;;;;;;5071489;28;20671;-78
2021/04/23 10:12:39;;;;;;;5.60;3.30;;;27.50;59.50;;;;;;5070965;28;20174;-77
2021/04/23 10:15:14;;;;;;;4.97;2.85;;;27.50;57.90;;;;;;5071212;28;20171;-75
2021/04/23 10:17:42;;;;;;;6.32;3.10;;;27.80;60.30;;;;;;5072756;28;20245;-76
2021/04/23 10:20:10;;;;;;;10.50;3.28;;;29.40;56.70;;;;;;5072643;28;20197;-75
2021/04/23 10:22:36;;;;;;;7.53;2.30;;;28.10;56.70;;;;;;5072762;28;20171;-75
2021/04/23 10:25:03;;;;;;;5.78;3.35;;;28.70;56.10;;;;;;5072636;28;20519;-75
2021/04/23 10:27:29;;;;;;;4.50;2.85;;;27.50;58.20;;;;;;5072260;28;20158;-78
2021/04/23 10:29:54;;;;;;;6.07;3.15;;;27.90;56.70;;;;;;5066871;28;21504;-79
2021/04/23 10:32:21;;;;;;;6.93;2.80;;;30.50;55.50;;;;;;5058070;28;20538;-76
2021/04/23 10:34:48;;;;;;;5.35;2.28;;;31.10;56.10;;;;;;5076245;28;20162;-76
2021/04/23 10:37:14;;;;;;;3.38;2.33;;;29.10;51.20;;;;;;5075314;28;20273;-76
2021/04/23 10:39:42;;;;;;;6.07;2.97;;;25.60;55.40;;;;;;5075869;28;20195;-76
2021/04/23 10:42:49;;;;;;;9.57;2.63;;;27.00;56.50;;;;;;5075989;28;20171;-76
2021/04/23 10:45:37;;;;;;;7.22;2.95;;;28.40;57.10;;;;;;5076005;28;20170;-76
2021/04/23 10:48:23;;;;;;;13.02;3.03;;;26.30;56.50;;;;;;5075860;28;20155;-76
2021/04/23 10:50:55;;;;;;;6.15;2.83;;;25.70;58.90;;;;;;5054370;28;20198;-75
2021/04/23 10:53:27;;;;;;;6.32;2.95;;;27.70;56.20;;;;;;5054416;28;20167;-76
2021/04/23 10:55:57;;;;;;;8.00;2.75;;;24.80;55.60;;;;;;5056095;28;20564;-75
2021/04/23 10:58:28;;;;;;;6.40;2.90;;;25.00;56.70;;;;;;5069814;28;20179;-75
2021/04/23 11:00:56;;;;;;;7.07;3.30;;;23.60;60.20;;;;;;5075288;28;20173;-75
2021/04/23 11:03:29;;;;;;;6.47;3.13;;;24.90;59.10;;;;;;5108186;28;20187;-75
2021/04/23 11:06:06;;;;;;;8.98;2.97;;;25.90;58.90;;;;;;5075560;28;20166;-75
2021/04/23 11:08:34;;;;;;;5.97;2.53;;;27.90;53.90;;;;;;5055109;28;20213;-76
2021/04/23 11:11:02;;;;;;;7.60;3.47;;;29.90;54.70;;;;;;5055220;28;20258;-76
2021/04/23 11:13:33;;;;;;;7.13;2.92;;;30.20;51.20;;;;;;5055561;28;20202;-78
2021/04/23 11:16:17;;;;;;;8.00;3.20;;;29.70;52.30;;;;;;5055051;28;20194;-76
2021/04/23 11:18:51;;;;;;;5.90;3.15;;;30.30;52.90;;;;;;5059537;28;20178;-78
2021/04/23 11:21:40;;;;;;;7.95;3.95;;;30.50;51.90;;;;;;5075303;28;20647;-77
2021/04/23 11:24:16;;;;;;;12.95;3.55;;;30.90;52.80;;;;;;5064560;28;20179;-80
2021/04/23 11:29:21;;;;;;;7.10;3.40;;;29.40;54.30;;;;;;5074488;28;20259;-82
2021/04/23 11:32:11;;;;;;;9.63;3.65;;;28.20;54.80;;;;;;5057213;28;20179;-78
2021/04/23 11:34:39;;;;;;;8.68;3.53;;;25.60;57.60;;;;;;5074992;28;20186;-77
2021/04/23 11:37:08;;;;;;;7.32;3.75;;;25.90;57.50;;;;;;5074580;28;20255;-77
2021/04/23 11:39:41;;;;;;;9.48;4.00;;;28.10;56.00;;;;;;5073611;28;20177;-78
2021/04/23 11:42:17;;;;;;;9.80;3.42;;;29.20;55.90;;;;;;5074555;28;20634;-76
2021/04/23 11:44:45;;;;;;;11.15;3.42;;;30.40;53.80;;;;;;5074338;28;20643;-77
2021/04/23 11:47:12;;;;;;;8.07;3.00;;;29.50;53.80;;;;;;5073065;28;20175;-76
2021/04/23 11:49:37;;;;;;;9.95;3.35;;;29.70;54.20;;;;;;5074557;28;20570;-78
2021/04/23 11:52:04;;;;;;;9.00;3.00;;;28.20;53.10;;;;;;5073105;28;20269;-77
2021/04/23 11:54:43;;;;;;;4.72;2.88;;;27.80;55.20;;;;;;5074663;28;20175;-76
2021/04/23 11:57:12;;;;;;;4.97;2.72;;;27.90;55.30;;;;;;5073232;28;20174;-76
2021/04/23 11:59:57;;;;;;;5.93;3.58;;;27.30;56.20;;;;;;5073755;28;20171;-76
2021/04/23 12:02:40;;;;;;;7.93;3.08;;;26.40;55.80;;;;;;5073381;28;20213;-76
2021/04/23 12:05:07;;;;;;;6.68;3.28;;;23.90;57.30;;;;;;5074876;28;20198;-75
2021/04/23 12:07:46;;;;;;;10.05;2.95;;;23.20;59.00;;;;;;5074026;28;20171;-76
2021/04/23 12:10:12;;;;;;;5.38;2.70;;;23.80;58.20;;;;;;5072982;28;20206;-76
2021/04/23 12:12:38;;;;;;;7.78;3.30;;;23.10;58.70;;;;;;5074691;28;20187;-77
2021/04/23 12:15:06;;;;;;;6.10;2.67;;;23.80;58.20;;;;;;5074578;28;20163;-79
2021/04/23 12:17:42;;;;;;;11.30;3.40;;;24.60;57.00;;;;;;5073161;28;20530;-76
2021/04/23 12:20:20;;;;;;;6.80;3.25;;;23.30;58.80;;;;;;5074113;28;20174;-76
2021/04/23 12:22:46;;;;;;;7.82;2.88;;;22.20;61.40;;;;;;5073202;28;20170;-76
2021/04/23 12:25:31;;;;;;;9.23;2.90;;;24.30;58.90;;;;;;5073259;28;20646;-76
2021/04/23 12:28:14;;;;;;;8.85;3.55;;;25.10;57.10;;;;;;5072778;28;20185;-76
2021/04/23 12:30:40;;;;;;;9.82;2.75;;;21.00;61.80;;;;;;5072898;28;20248;-76
2021/04/23 12:33:05;;;;;;;10.25;3.75;;;19.80;67.30;;;;;;5072844;28;20547;-76
2021/04/23 12:35:41;;;;;;;13.68;4.20;;;19.20;68.70;;;;;;5073818;28;20162;-76
2021/04/23 12:38:10;;;;;;;5.07;3.13;;;19.20;67.80;;;;;;5074209;28;20178;-76
2021/04/23 12:40:46;;;;;;;9.35;3.47;;;18.60;68.30;;;;;;5074068;28;20173;-76
2021/04/23 12:43:16;;;;;;;5.95;3.85;;;17.80;71.30;;;;;;5074133;28;20178;-76
2021/04/23 12:45:44;;;;;;;10.13;3.40;;;17.70;73.50;;;;;;5074098;28;20170;-76
2021/04/23 12:48:10;;;;;;;6.25;3.63;;;17.20;74.30;;;;;;5073997;28;20521;-76
2021/04/23 12:50:36;;;;;;;7.82;3.33;;;17.00;72.30;;;;;;5055743;28;20189;-76
2021/04/23 12:53:02;;;;;;;11.25;4.40;;;17.20;73.30;;;;;;5071919;28;20171;-76
2021/04/23 12:55:29;;;;;;;13.10;3.88;;;17.10;73.70;;;;;;5073726;28;20692;-76